Time;durP1;ratioP1;P1;durP2;ratioP2;P2;SDS_P1;SDS_P2;PMS_P1;PMS_P2;Temp;Humidity;BMP_temperature;BMP_pressure;BME280_temperature;BME280_humidity;BME280_pressure;Samples;Min_cycle;Max_cycle;Signal;HPM_P1;HPM_P2
2023/07/06 00:01:48;;;;;;;3.80;1.80;;;17.30;94.90;;;;;;5042996;28;20574;-33
2023/07/06 00:04:18;;;;;;;5.65;1.55;;;17.30;94.80;;;;;;5026431;28;20334;-33
2023/07/06 00:06:46;;;;;;;2.83;1.65;;;17.30;94.80;;;;;;5044471;28;20204;-34
2023/07/06 00:09:16;;;;;;;5.88;1.90;;;17.30;94.80;;;;;;5042705;28;20485;-34
2023/07/06 00:11:44;;;;;;;2.80;1.40;;;17.20;94.80;;;;;;5043306;28;20200;-34
2023/07/06 00:14:32;;;;;;;4.75;1.67;;;17.20;94.80;;;;;;5044063;28;20261;-34
2023/07/06 00:17:12;;;;;;;2.92;1.65;;;17.20;94.90;;;;;;5042638;28;20200;-34
2023/07/06 00:19:42;;;;;;;3.17;1.60;;;17.10;94.90;;;;;;5042706;28;20196;-34
2023/07/06 00:22:11;;;;;;;4.53;1.65;;;17.10;94.90;;;;;;5042527;28;20278;-33
2023/07/06 00:24:42;;;;;;;6.63;1.92;;;17.10;95.00;;;;;;5042815;28;20211;-33
2023/07/06 00:27:15;;;;;;;5.95;1.70;;;17.10;94.90;;;;;;5044109;28;20192;-33
2023/07/06 00:29:56;;;;;;;4.32;1.70;;;17.00;94.80;;;;;;5044122;28;20753;-34
2023/07/06 00:32:28;;;;;;;4.63;1.98;;;17.00;94.90;;;;;;5042574;28;20204;-34
2023/07/06 00:35:00;;;;;;;4.30;1.85;;;17.00;94.90;;;;;;5043004;28;20216;-34
2023/07/06 00:37:29;;;;;;;7.80;2.20;;;17.00;95.00;;;;;;5044289;28;20547;-34
2023/07/06 00:39:56;;;;;;;5.05;1.75;;;17.00;94.90;;;;;;5044141;28;20215;-34
2023/07/06 00:42:28;;;;;;;3.22;2.03;;;17.00;94.90;;;;;;5042583;28;20203;-33
2023/07/06 00:44:58;;;;;;;5.63;1.88;;;16.90;94.90;;;;;;5044061;28;20514;-33
2023/07/06 00:47:34;;;;;;;5.32;1.77;;;16.90;94.90;;;;;;5044179;28;20294;-33
2023/07/06 00:50:11;;;;;;;5.97;2.30;;;16.90;95.00;;;;;;5044595;28;20207;-34
2023/07/06 00:52:54;;;;;;;5.40;2.10;;;16.90;95.00;;;;;;5042472;28;20254;-33
2023/07/06 00:55:26;;;;;;;4.53;1.67;;;16.80;95.00;;;;;;5042461;28;20227;-34
2023/07/06 00:57:58;;;;;;;6.15;2.17;;;16.80;95.00;;;;;;5043750;28;20203;-33
2023/07/06 01:00:28;;;;;;;4.82;2.15;;;16.80;95.00;;;;;;5043914;28;20200;-33
2023/07/06 01:03:01;;;;;;;4.03;2.05;;;16.80;95.00;;;;;;5042447;28;20632;-33
2023/07/06 01:05:30;;;;;;;7.93;2.40;;;16.80;95.10;;;;;;5044053;28;20707;-34
2023/07/06 01:08:05;;;;;;;5.35;2.00;;;16.80;95.00;;;;;;5026093;28;20200;-33
2023/07/06 01:10:33;;;;;;;3.97;2.03;;;16.80;95.30;;;;;;5043875;28;20231;-34
2023/07/06 01:13:01;;;;;;;4.85;1.92;;;16.70;95.00;;;;;;5042145;28;20207;-34
2023/07/06 01:15:35;;;;;;;6.30;2.00;;;16.70;95.00;;;;;;5026992;28;20222;-33
2023/07/06 01:18:36;;;;;;;3.63;1.95;;;16.70;95.00;;;;;;5047770;28;20664;-34
2023/07/06 01:21:09;;;;;;;5.43;2.03;;;16.70;95.10;;;;;;5038794;28;20204;-33
2023/07/06 01:24:00;;;;;;;4.60;1.90;;;16.70;95.10;;;;;;5047122;28;20197;-34
2023/07/06 01:27:01;;;;;;;4.22;1.95;;;16.70;95.20;;;;;;5047318;28;20207;-33
2023/07/06 01:30:07;;;;;;;5.00;1.90;;;16.60;95.20;;;;;;5047143;28;20203;-33
2023/07/06 01:32:44;;;;;;;3.67;1.80;;;16.60;95.30;;;;;;5047162;28;20200;-33
2023/07/06 01:35:23;;;;;;;5.57;1.90;;;16.60;95.20;;;;;;5045697;28;20231;-33
2023/07/06 01:37:53;;;;;;;6.90;2.65;;;16.60;95.20;;;;;;5046922;28;20301;-33
2023/07/06 01:40:23;;;;;;;4.67;1.70;;;16.50;95.20;;;;;;5045545;28;20358;-33
2023/07/06 01:42:50;;;;;;;5.15;2.13;;;16.50;95.20;;;;;;5046810;28;20203;-33
2023/07/06 01:45:24;;;;;;;5.15;1.98;;;16.50;95.20;;;;;;5045355;28;20228;-34
2023/07/06 01:48:03;;;;;;;6.82;1.98;;;16.50;95.20;;;;;;5046796;28;20743;-33
2023/07/06 01:50:39;;;;;;;6.75;2.10;;;16.50;95.40;;;;;;5046748;28;20543;-34
2023/07/06 01:53:31;;;;;;;4.25;1.88;;;16.50;95.30;;;;;;5046701;28;20206;-33
2023/07/06 01:56:09;;;;;;;5.73;2.20;;;16.50;95.40;;;;;;5046690;28;20224;-34
2023/07/06 01:58:50;;;;;;;6.43;2.13;;;16.40;95.30;;;;;;5046921;28;20692;-34
2023/07/06 02:01:29;;;;;;;8.75;2.40;;;16.40;95.30;;;;;;5045042;28;20692;-34
2023/07/06 02:03:56;;;;;;;4.43;2.10;;;16.40;95.30;;;;;;5046630;28;20196;-33
2023/07/06 02:06:27;;;;;;;4.03;2.03;;;16.40;95.30;;;;;;5046116;28;20231;-33
2023/07/06 02:08:56;;;;;;;4.70;2.17;;;16.40;95.40;;;;;;5044989;28;20231;-33
2023/07/06 02:11:26;;;;;;;4.85;2.22;;;16.30;95.30;;;;;;5045064;28;20638;-33
2023/07/06 02:13:55;;;;;;;7.13;2.20;;;16.30;95.40;;;;;;5028318;28;20261;-33
2023/07/06 02:16:23;;;;;;;8.52;2.63;;;16.30;95.50;;;;;;5044804;28;20247;-34
2023/07/06 02:18:58;;;;;;;6.32;2.28;;;16.30;95.40;;;;;;5046359;28;20585;-33
2023/07/06 02:21:26;;;;;;;5.00;2.10;;;16.30;95.40;;;;;;5046620;28;20200;-33
2023/07/06 02:24:00;;;;;;;5.10;1.88;;;16.20;95.40;;;;;;5046134;28;20805;-33
2023/07/06 02:26:32;;;;;;;5.00;2.08;;;16.20;95.40;;;;;;5043983;28;20207;-34
2023/07/06 02:29:02;;;;;;;4.83;2.10;;;16.20;95.50;;;;;;5044563;28;20204;-34
2023/07/06 02:31:36;;;;;;;5.80;1.73;;;16.20;95.50;;;;;;5028287;28;20202;-34
2023/07/06 02:34:06;;;;;;;5.72;2.15;;;16.20;95.50;;;;;;5045752;28;20200;-34
2023/07/06 02:36:40;;;;;;;4.87;1.87;;;16.10;95.50;;;;;;5044238;28;20548;-34
2023/07/06 02:39:11;;;;;;;5.23;2.07;;;16.10;95.50;;;;;;5044450;28;21005;-33
2023/07/06 02:41:38;;;;;;;5.47;2.27;;;16.10;95.50;;;;;;5044515;28;20670;-34
2023/07/06 02:44:08;;;;;;;5.57;2.17;;;16.10;95.60;;;;;;5046363;28;20892;-33
2023/07/06 02:46:39;;;;;;;4.28;2.13;;;16.10;95.60;;;;;;5044154;28;20756;-34
2023/07/06 02:49:09;;;;;;;3.97;1.75;;;16.10;95.50;;;;;;5045378;28;20208;-34
2023/07/06 02:51:36;;;;;;;4.57;2.07;;;16.10;95.60;;;;;;5044008;28;20214;-33
2023/07/06 02:54:10;;;;;;;6.38;2.10;;;16.00;95.60;;;;;;5044044;28;20204;-33
2023/07/06 02:56:38;;;;;;;6.30;2.15;;;16.00;95.60;;;;;;5044106;28;20744;-33
2023/07/06 02:59:08;;;;;;;5.80;2.27;;;16.00;95.60;;;;;;5044416;28;20708;-33
2023/07/06 03:01:36;;;;;;;7.47;2.55;;;16.00;95.60;;;;;;5043913;28;20215;-33
2023/07/06 03:04:09;;;;;;;3.95;2.10;;;16.00;95.60;;;;;;5044197;28;20569;-34
2023/07/06 03:06:37;;;;;;;5.07;2.27;;;15.90;95.60;;;;;;5045303;28;20220;-33
2023/07/06 03:09:08;;;;;;;5.03;2.20;;;15.90;95.70;;;;;;5045215;28;20207;-33
2023/07/06 03:11:36;;;;;;;3.90;2.03;;;15.90;95.70;;;;;;5045241;28;20210;-33
2023/07/06 03:14:08;;;;;;;6.97;3.23;;;15.90;95.70;;;;;;5043665;28;20686;-34
2023/07/06 03:16:44;;;;;;;4.47;1.87;;;15.90;95.70;;;;;;5043642;28;20718;-33
2023/07/06 03:19:13;;;;;;;4.43;2.20;;;15.90;95.70;;;;;;5045251;28;20227;-33
2023/07/06 03:21:40;;;;;;;3.33;1.70;;;15.80;95.60;;;;;;5045311;28;20295;-33
2023/07/06 03:24:10;;;;;;;7.20;2.37;;;15.80;95.70;;;;;;5045279;28;20200;-33
2023/07/06 03:26:41;;;;;;;4.88;2.38;;;15.80;95.80;;;;;;5045088;28;20196;-33
2023/07/06 03:29:14;;;;;;;6.47;2.37;;;15.80;95.70;;;;;;5045111;28;20708;-34
2023/07/06 03:31:45;;;;;;;8.38;2.20;;;15.80;95.80;;;;;;5044603;28;20635;-33
2023/07/06 03:34:15;;;;;;;6.10;2.00;;;15.80;95.80;;;;;;5043523;28;20213;-33
2023/07/06 03:36:42;;;;;;;6.03;2.40;;;15.80;95.80;;;;;;5042978;28;20231;-34
2023/07/06 03:39:12;;;;;;;4.80;2.27;;;15.80;95.80;;;;;;5042755;28;20600;-33
2023/07/06 03:41:42;;;;;;;6.20;2.50;;;15.80;95.90;;;;;;5044816;28;20200;-33
2023/07/06 03:44:10;;;;;;;5.70;2.50;;;15.80;95.90;;;;;;5044468;28;20196;-33
2023/07/06 03:46:37;;;;;;;8.80;2.40;;;15.80;95.90;;;;;;5044783;28;20277;-34
2023/07/06 03:49:09;;;;;;;7.82;2.10;;;15.80;95.90;;;;;;5043181;28;20313;-33
2023/07/06 03:51:37;;;;;;;7.18;2.22;;;15.80;96.00;;;;;;5043121;28;20657;-33
2023/07/06 03:54:09;;;;;;;8.23;2.80;;;15.80;96.00;;;;;;5044668;28;20208;-33
2023/07/06 03:56:39;;;;;;;4.93;2.08;;;15.80;96.10;;;;;;5043231;28;20228;-33
2023/07/06 03:59:09;;;;;;;5.28;2.17;;;15.80;96.10;;;;;;5043124;28;20223;-33
2023/07/06 04:01:36;;;;;;;4.80;2.13;;;15.80;96.10;;;;;;5042935;28;20189;-34
2023/07/06 04:04:09;;;;;;;4.77;2.47;;;15.80;96.10;;;;;;5044399;28;20199;-33
2023/07/06 04:06:40;;;;;;;7.23;2.40;;;15.80;96.10;;;;;;5044621;28;20208;-33
2023/07/06 04:09:10;;;;;;;7.30;2.33;;;15.80;96.10;;;;;;5044761;28;20624;-34
2023/07/06 04:11:41;;;;;;;6.10;2.58;;;15.80;96.20;;;;;;5043076;28;20200;-33
2023/07/06 04:14:08;;;;;;;7.90;3.53;;;15.80;96.20;;;;;;5043034;28;20232;-33
2023/07/06 04:16:40;;;;;;;13.37;4.73;;;15.80;96.20;;;;;;5044445;28;20224;-33
2023/07/06 04:19:10;;;;;;;5.87;2.77;;;15.80;96.40;;;;;;5044459;28;20196;-33
2023/07/06 04:21:40;;;;;;;5.40;2.47;;;15.80;96.30;;;;;;5044265;28;20199;-33
2023/07/06 04:24:09;;;;;;;7.47;2.53;;;15.80;96.30;;;;;;5044371;28;20576;-33
2023/07/06 04:26:37;;;;;;;5.40;2.67;;;15.80;96.40;;;;;;5044261;28;20281;-33
2023/07/06 04:29:09;;;;;;;5.85;2.40;;;15.90;96.40;;;;;;5044091;28;20200;-33
2023/07/06 04:31:37;;;;;;;5.70;2.60;;;15.90;96.40;;;;;;5043978;28;20204;-33
2023/07/06 04:34:05;;;;;;;6.90;2.60;;;15.90;96.40;;;;;;5043917;28;20285;-33
2023/07/06 04:36:32;;;;;;;3.77;2.20;;;15.90;96.40;;;;;;5042373;28;20236;-33
2023/07/06 04:39:00;;;;;;;5.57;2.27;;;16.00;96.50;;;;;;5043927;28;20240;-33
2023/07/06 04:41:28;;;;;;;8.98;2.58;;;16.00;96.50;;;;;;5044018;28;20212;-33
2023/07/06 04:43:55;;;;;;;4.95;2.63;;;16.00;96.60;;;;;;5043020;28;20595;-33
2023/07/06 04:46:22;;;;;;;8.50;3.83;;;16.00;96.60;;;;;;5042566;28;20204;-34
2023/07/06 04:48:53;;;;;;;6.93;2.80;;;16.00;96.70;;;;;;5044307;28;20217;-33
2023/07/06 04:51:21;;;;;;;8.10;2.47;;;16.10;96.70;;;;;;5048131;28;20202;-33
2023/07/06 04:53:53;;;;;;;6.83;2.50;;;16.10;96.70;;;;;;5048169;28;20257;-33
2023/07/06 04:56:22;;;;;;;14.63;4.63;;;16.10;96.70;;;;;;5047974;28;20271;-33
2023/07/06 04:58:50;;;;;;;9.60;3.70;;;16.10;96.90;;;;;;5046389;28;20189;-33
2023/07/06 05:01:19;;;;;;;8.60;2.70;;;16.10;96.80;;;;;;5046000;28;20666;-33
2023/07/06 05:03:52;;;;;;;6.17;2.40;;;16.10;96.80;;;;;;5045936;28;20253;-34
2023/07/06 05:06:20;;;;;;;6.13;2.57;;;16.20;96.90;;;;;;5048025;28;20556;-34
2023/07/06 05:08:49;;;;;;;7.00;2.60;;;16.20;96.90;;;;;;5047991;28;20948;-33
2023/07/06 05:11:16;;;;;;;8.97;3.23;;;16.20;96.90;;;;;;5045845;28;20686;-33
2023/07/06 05:13:44;;;;;;;7.43;2.70;;;16.30;97.40;;;;;;5045981;28;20200;-33
2023/07/06 05:16:11;;;;;;;7.60;2.90;;;16.30;97.10;;;;;;5047598;28;20660;-33
2023/07/06 05:18:43;;;;;;;7.63;2.73;;;16.30;97.10;;;;;;5045634;28;20192;-33
2023/07/06 05:21:10;;;;;;;7.87;2.47;;;16.30;97.10;;;;;;5047173;28;20283;-33
2023/07/06 05:23:40;;;;;;;6.70;2.67;;;16.40;97.20;;;;;;5047352;28;20270;-33
2023/07/06 05:26:12;;;;;;;11.53;3.90;;;16.50;97.20;;;;;;5045687;28;20204;-34
2023/07/06 05:28:50;;;;;;;7.97;3.30;;;16.50;97.20;;;;;;5045897;28;20744;-33
2023/07/06 05:31:17;;;;;;;7.35;2.78;;;16.50;97.30;;;;;;5047087;28;20294;-33
2023/07/06 05:33:47;;;;;;;8.50;2.80;;;16.60;97.30;;;;;;5029049;28;20211;-33
2023/07/06 05:36:16;;;;;;;7.43;3.40;;;16.60;97.40;;;;;;5046589;28;20224;-33
2023/07/06 05:38:44;;;;;;;10.65;3.25;;;16.70;97.50;;;;;;5046846;28;20240;-34
2023/07/06 05:41:15;;;;;;;7.60;2.90;;;16.80;97.50;;;;;;5047282;28;20204;-33
2023/07/06 05:43:45;;;;;;;7.20;2.90;;;16.80;97.50;;;;;;5045445;28;20241;-33
2023/07/06 05:46:14;;;;;;;7.15;2.55;;;16.90;97.60;;;;;;5029214;28;20585;-33
2023/07/06 05:48:43;;;;;;;7.73;2.53;;;16.90;97.60;;;;;;5046595;28;20207;-33
2023/07/06 05:51:16;;;;;;;9.23;3.03;;;16.90;97.60;;;;;;5046553;28;20200;-33
2023/07/06 05:53:43;;;;;;;5.75;2.40;;;17.00;97.70;;;;;;5045041;28;20196;-34
2023/07/06 05:56:13;;;;;;;6.15;2.53;;;17.00;97.60;;;;;;5045151;28;20228;-34
2023/07/06 05:58:40;;;;;;;10.13;2.90;;;17.10;97.80;;;;;;5047000;28;20203;-34
2023/07/06 06:01:07;;;;;;;7.38;2.40;;;17.10;97.80;;;;;;5044267;28;20694;-35
2023/07/06 06:03:40;;;;;;;5.95;3.00;;;17.20;97.80;;;;;;5045189;28;20246;-34
2023/07/06 06:06:10;;;;;;;7.32;2.78;;;17.20;97.80;;;;;;5046386;28;20278;-34
2023/07/06 06:08:48;;;;;;;6.47;2.80;;;17.30;97.90;;;;;;5044909;28;20200;-35
2023/07/06 06:11:16;;;;;;;7.22;2.72;;;17.30;97.90;;;;;;5044756;28;20204;-35
2023/07/06 06:13:45;;;;;;;9.80;2.90;;;17.40;98.00;;;;;;5044503;28;20579;-35
2023/07/06 06:16:16;;;;;;;6.35;2.75;;;17.40;98.00;;;;;;5044746;28;20212;-34
2023/07/06 06:18:44;;;;;;;7.13;2.92;;;17.40;98.10;;;;;;5044990;28;20396;-34
2023/07/06 06:21:11;;;;;;;6.25;2.92;;;17.50;98.10;;;;;;5044742;28;20207;-27
2023/07/06 06:23:42;;;;;;;5.60;2.78;;;17.60;98.20;;;;;;5046147;28;20196;-26
2023/07/06 06:26:11;;;;;;;8.68;2.70;;;17.70;98.30;;;;;;5045748;28;20204;-26
2023/07/06 06:28:39;;;;;;;8.33;2.97;;;17.70;98.20;;;;;;5045919;28;20200;-26
2023/07/06 06:31:08;;;;;;;9.02;3.10;;;17.80;98.40;;;;;;5044305;28;20208;-26
2023/07/06 06:33:35;;;;;;;5.00;2.75;;;17.80;98.40;;;;;;5044279;28;20291;-26
2023/07/06 06:36:03;;;;;;;9.43;3.05;;;17.90;98.50;;;;;;5045402;28;20698;-25
2023/07/06 06:38:34;;;;;;;9.82;3.08;;;18.00;98.50;;;;;;5027952;28;20236;-26
2023/07/06 06:41:07;;;;;;;7.32;2.92;;;18.00;98.50;;;;;;5045568;28;20240;-26
2023/07/06 06:43:38;;;;;;;7.53;2.72;;;18.10;98.50;;;;;;5044317;28;20208;-26
2023/07/06 06:46:11;;;;;;;7.07;2.47;;;18.20;98.90;;;;;;5045564;28;20324;-26
2023/07/06 06:48:43;;;;;;;7.28;3.10;;;18.20;98.60;;;;;;5044095;28;20511;-26
2023/07/06 06:51:11;;;;;;;8.48;2.92;;;18.30;98.70;;;;;;5043915;28;20653;-26
2023/07/06 06:53:41;;;;;;;7.60;2.80;;;18.30;98.70;;;;;;5043603;28;20235;-26
2023/07/06 06:56:13;;;;;;;7.47;2.65;;;18.40;98.90;;;;;;5045196;28;20219;-26
2023/07/06 06:58:46;;;;;;;7.47;2.28;;;18.50;98.90;;;;;;5044320;28;20200;-26
2023/07/06 07:01:20;;;;;;;6.63;2.85;;;18.50;98.80;;;;;;5044007;28;20210;-26
2023/07/06 07:03:50;;;;;;;7.20;2.40;;;18.60;98.90;;;;;;5043873;28;20204;-26
2023/07/06 07:06:22;;;;;;;7.40;2.60;;;18.60;98.90;;;;;;5045004;28;20208;-26
2023/07/06 07:08:49;;;;;;;7.80;2.75;;;18.60;98.90;;;;;;5043456;28;20208;-26
2023/07/06 07:11:19;;;;;;;7.07;2.90;;;18.70;99.00;;;;;;5043457;28;20277;-26
2023/07/06 07:13:55;;;;;;;9.82;2.40;;;18.70;99.00;;;;;;5043421;28;20793;-26
2023/07/06 07:16:23;;;;;;;9.15;2.63;;;18.80;99.40;;;;;;5045184;28;20719;-26
2023/07/06 07:18:56;;;;;;;8.88;2.67;;;18.80;99.10;;;;;;5045370;28;20286;-26
2023/07/06 07:21:27;;;;;;;7.35;2.70;;;18.90;99.10;;;;;;5043104;28;20202;-25
2023/07/06 07:23:57;;;;;;;13.30;3.03;;;19.00;99.20;;;;;;5045024;28;20303;-25
2023/07/06 07:26:29;;;;;;;7.35;2.80;;;19.00;99.20;;;;;;5045043;28;20265;-26
2023/07/06 07:28:57;;;;;;;7.00;2.70;;;19.00;99.20;;;;;;5045053;28;20205;-25
2023/07/06 07:31:25;;;;;;;6.88;2.83;;;19.10;99.30;;;;;;5043137;28;20701;-25
2023/07/06 07:33:55;;;;;;;7.93;2.40;;;19.10;99.30;;;;;;5044927;28;20258;-26
2023/07/06 07:36:25;;;;;;;9.10;2.65;;;19.20;99.30;;;;;;5044829;28;20309;-26
2023/07/06 07:38:57;;;;;;;7.32;2.92;;;19.30;99.30;;;;;;5043444;28;20339;-26
2023/07/06 07:41:27;;;;;;;8.98;2.97;;;19.30;99.30;;;;;;5043521;28;20208;-25
2023/07/06 07:43:58;;;;;;;7.32;2.45;;;19.30;99.30;;;;;;5043541;28;20204;-25
2023/07/06 07:46:28;;;;;;;9.57;2.85;;;19.40;99.40;;;;;;5026841;28;20691;-25
2023/07/06 07:48:57;;;;;;;8.75;2.78;;;19.40;99.30;;;;;;5044871;28;20622;-25
2023/07/06 07:51:30;;;;;;;7.25;2.65;;;19.50;99.40;;;;;;5044639;28;20286;-25
2023/07/06 07:54:02;;;;;;;5.72;2.50;;;19.50;99.40;;;;;;5044576;28;20195;-25
2023/07/06 07:56:32;;;;;;;8.32;3.10;;;19.60;99.40;;;;;;5043151;28;20236;-25
2023/07/06 07:59:05;;;;;;;9.02;2.90;;;19.60;99.50;;;;;;5043091;28;20702;-25
2023/07/06 08:01:38;;;;;;;7.70;2.70;;;19.70;99.50;;;;;;5044101;28;20201;-25
2023/07/06 08:04:05;;;;;;;8.50;2.40;;;19.70;99.40;;;;;;5026905;28;20557;-25
2023/07/06 08:06:38;;;;;;;7.82;2.80;;;19.80;99.50;;;;;;5042687;28;20196;-25
2023/07/06 08:09:09;;;;;;;6.47;2.60;;;19.80;99.50;;;;;;5044470;28;20290;-33
2023/07/06 08:11:41;;;;;;;9.05;2.75;;;19.90;99.50;;;;;;5044247;28;20201;-33
2023/07/06 08:14:08;;;;;;;5.82;2.60;;;20.00;99.60;;;;;;5042753;28;20311;-33
2023/07/06 08:16:40;;;;;;;5.43;2.83;;;20.10;99.60;;;;;;5044118;28;20248;-34
2023/07/06 08:19:09;;;;;;;7.22;2.47;;;20.10;99.70;;;;;;5044205;28;20757;-33
2023/07/06 08:22:00;;;;;;;7.28;2.65;;;20.20;99.70;;;;;;5044601;28;20315;-34
2023/07/06 08:24:37;;;;;;;5.65;2.30;;;20.30;99.70;;;;;;5045735;28;20954;-33
2023/07/06 08:27:05;;;;;;;8.70;3.17;;;20.40;99.70;;;;;;5047034;28;20243;-33
2023/07/06 08:29:32;;;;;;;5.15;2.15;;;20.40;99.70;;;;;;5048406;28;20254;-33
2023/07/06 08:32:03;;;;;;;9.45;2.92;;;20.50;99.70;;;;;;5048511;28;20206;-33
2023/07/06 08:34:37;;;;;;;6.85;2.90;;;20.50;99.60;;;;;;5046880;28;20204;-34
2023/07/06 08:37:10;;;;;;;10.23;3.13;;;20.50;99.60;;;;;;5046567;28;20247;-34
2023/07/06 08:39:37;;;;;;;9.02;3.40;;;20.50;99.50;;;;;;5046517;28;20199;-34
2023/07/06 08:42:16;;;;;;;9.07;2.70;;;20.50;99.50;;;;;;5047129;28;20196;-33
2023/07/06 08:44:53;;;;;;;6.78;2.65;;;20.60;99.60;;;;;;5048739;28;20211;-33
2023/07/06 08:47:26;;;;;;;9.30;2.60;;;20.60;99.60;;;;;;5047417;28;20223;-33
2023/07/06 08:49:56;;;;;;;8.43;2.67;;;20.70;99.60;;;;;;5049128;28;20545;-32
2023/07/06 08:52:28;;;;;;;7.57;2.20;;;20.70;99.60;;;;;;5030359;28;20289;-32
2023/07/06 08:54:56;;;;;;;5.15;2.20;;;20.80;99.70;;;;;;5046131;28;20571;-33
2023/07/06 08:57:30;;;;;;;6.95;2.63;;;20.80;99.70;;;;;;5047538;28;20697;-32
2023/07/06 09:00:00;;;;;;;6.70;2.20;;;20.90;99.90;;;;;;5047785;28;20262;-33
2023/07/06 09:02:36;;;;;;;8.63;2.33;;;21.00;99.80;;;;;;5047950;28;20279;-32
2023/07/06 09:05:12;;;;;;;5.72;2.30;;;21.00;99.80;;;;;;5045884;28;20200;-33
2023/07/06 09:07:43;;;;;;;2.80;1.65;;;21.20;99.90;;;;;;5047780;28;20211;-33
2023/07/06 09:10:17;;;;;;;5.85;2.58;;;21.20;99.80;;;;;;5047629;28;20660;-33
2023/07/06 09:12:53;;;;;;;5.22;1.98;;;21.30;99.90;;;;;;5047933;28;20278;-33
2023/07/06 09:15:30;;;;;;;7.15;2.15;;;21.40;99.90;;;;;;5046051;28;20204;-33
2023/07/06 09:18:03;;;;;;;4.22;2.05;;;21.40;99.90;;;;;;5047184;28;20770;-33
2023/07/06 09:20:37;;;;;;;4.65;1.85;;;21.50;99.90;;;;;;5047414;28;20290;-33
2023/07/06 09:23:05;;;;;;;4.32;2.15;;;21.60;99.90;;;;;;5047186;28;20200;-33
2023/07/06 09:25:42;;;;;;;3.67;1.92;;;21.60;99.80;;;;;;5047218;28;20319;-26
2023/07/06 09:28:18;;;;;;;4.20;2.17;;;21.60;99.70;;;;;;5047007;28;20199;-26
2023/07/06 09:30:50;;;;;;;3.63;1.63;;;21.70;99.80;;;;;;5047514;28;20200;-26
2023/07/06 09:33:28;;;;;;;6.00;2.10;;;21.70;99.70;;;;;;5047093;28;20751;-26
2023/07/06 09:35:57;;;;;;;3.47;1.80;;;21.70;99.60;;;;;;5044177;28;20204;-26
2023/07/06 09:38:27;;;;;;;4.65;1.60;;;21.80;99.60;;;;;;5045594;28;20439;-26
2023/07/06 09:40:57;;;;;;;6.85;2.35;;;21.80;99.40;;;;;;5045604;28;20215;-26
2023/07/06 09:43:29;;;;;;;6.60;1.90;;;21.80;99.30;;;;;;5047000;28;20410;-25
2023/07/06 09:46:01;;;;;;;4.55;1.67;;;21.80;99.30;;;;;;5045440;28;20678;-26
2023/07/06 09:48:32;;;;;;;3.70;1.75;;;21.80;99.20;;;;;;5046756;28;20303;-26
2023/07/06 09:51:11;;;;;;;4.25;1.77;;;21.80;99.30;;;;;;5045257;28;20204;-26
2023/07/06 09:53:48;;;;;;;4.78;2.00;;;21.80;99.30;;;;;;5046528;28;20261;-26
2023/07/06 09:56:20;;;;;;;4.18;1.90;;;21.80;99.30;;;;;;5045083;28;20215;-26
2023/07/06 09:58:49;;;;;;;5.25;1.70;;;21.90;99.30;;;;;;5046239;28;20235;-26
2023/07/06 10:01:50;;;;;;;5.93;1.60;;;21.90;99.30;;;;;;5046097;28;20310;-26
2023/07/06 10:04:35;;;;;;;4.88;1.70;;;22.00;99.30;;;;;;5046224;28;20284;-26
2023/07/06 10:07:25;;;;;;;4.20;1.48;;;22.00;99.30;;;;;;5045905;28;20258;-26
2023/07/06 10:10:22;;;;;;;3.65;1.50;;;22.10;99.30;;;;;;5046654;28;20204;-26
2023/07/06 10:12:55;;;;;;;3.75;1.48;;;22.20;99.30;;;;;;5046205;28;20650;-26
2023/07/06 10:15:35;;;;;;;2.75;1.70;;;22.20;99.40;;;;;;5044287;28;20390;-26
2023/07/06 10:18:15;;;;;;;5.53;1.77;;;22.30;99.30;;;;;;5045570;28;20318;-26
2023/07/06 10:20:48;;;;;;;4.75;2.03;;;22.40;99.40;;;;;;5045760;28;20204;-26
2023/07/06 10:23:32;;;;;;;3.92;2.15;;;22.50;99.60;;;;;;5044432;28;20215;-26
2023/07/06 10:26:26;;;;;;;5.78;2.03;;;22.60;99.50;;;;;;5045992;28;20206;-26
2023/07/06 10:29:05;;;;;;;4.88;1.48;;;22.70;99.50;;;;;;5045663;28;20319;-26
2023/07/06 10:31:47;;;;;;;4.63;2.05;;;22.80;99.40;;;;;;5045827;28;20196;-26
2023/07/06 10:34:44;;;;;;;3.83;1.90;;;22.90;99.40;;;;;;5044139;28;20277;-26
2023/07/06 10:37:17;;;;;;;3.60;1.95;;;22.90;99.30;;;;;;5043720;28;20216;-26
2023/07/06 10:39:50;;;;;;;4.85;2.13;;;23.00;99.40;;;;;;5045315;28;20315;-26
2023/07/06 10:42:25;;;;;;;3.83;1.77;;;23.10;99.50;;;;;;5045377;28;20227;-26
2023/07/06 10:44:58;;;;;;;4.25;1.80;;;23.10;99.10;;;;;;5045461;28;20741;-26
2023/07/06 10:47:32;;;;;;;5.30;2.10;;;23.20;99.40;;;;;;5044691;28;20276;-25
2023/07/06 10:50:29;;;;;;;2.35;1.40;;;23.30;99.40;;;;;;5043682;28;20330;-26
2023/07/06 10:53:23;;;;;;;4.35;1.40;;;23.30;98.90;;;;;;5044874;28;20209;-26
2023/07/06 10:56:17;;;;;;;8.50;2.13;;;23.30;99.10;;;;;;5045306;28;20204;-26
2023/07/06 10:58:48;;;;;;;3.97;1.60;;;23.30;99.10;;;;;;5043672;28;20228;-26
2023/07/06 11:01:22;;;;;;;18.92;3.38;;;23.40;99.20;;;;;;5045520;28;20200;-27
2023/07/06 11:03:49;;;;;;;22.45;3.83;;;23.40;98.50;;;;;;5045179;28;20196;-26
2023/07/06 11:06:40;;;;;;;158.77;23.85;;;23.40;98.80;;;;;;5045110;28;20207;-26
2023/07/06 11:09:13;;;;;;;15.05;4.13;;;23.40;98.50;;;;;;5043260;28;20196;-26
2023/07/06 11:11:51;;;;;;;8.10;2.55;;;23.40;98.80;;;;;;5043588;28;20734;-26
2023/07/06 11:14:33;;;;;;;16.42;3.20;;;23.40;98.80;;;;;;5045206;28;20477;-26
2023/07/06 11:17:28;;;;;;;4.63;1.90;;;23.40;98.50;;;;;;5045308;28;20877;-26
2023/07/06 11:20:10;;;;;;;2.33;1.15;;;23.40;97.90;;;;;;5044963;28;20196;-26
2023/07/06 11:22:44;;;;;;;6.03;1.80;;;23.40;97.90;;;;;;5044914;28;20214;-25
2023/07/06 11:25:13;;;;;;;2.90;1.30;;;23.40;98.30;;;;;;5044551;28;20219;-25
2023/07/06 11:27:48;;;;;;;3.97;1.45;;;23.50;98.60;;;;;;5045157;28;20210;-25
2023/07/06 11:30:36;;;;;;;3.00;1.40;;;23.60;98.20;;;;;;5045282;28;20222;-25
2023/07/06 11:33:06;;;;;;;6.65;1.73;;;23.70;98.50;;;;;;5044562;28;20645;-25
2023/07/06 11:36:00;;;;;;;3.92;1.85;;;23.70;98.00;;;;;;5044899;28;20200;-25
2023/07/06 11:38:56;;;;;;;5.03;1.60;;;23.80;98.00;;;;;;5044267;28;20347;-25
2023/07/06 11:41:43;;;;;;;3.42;1.58;;;23.70;97.90;;;;;;5044222;28;20200;-25
2023/07/06 11:44:24;;;;;;;4.65;1.73;;;23.70;98.10;;;;;;5042810;28;20204;-25
2023/07/06 11:47:10;;;;;;;3.00;1.50;;;23.80;98.20;;;;;;5044546;28;20227;-25
2023/07/06 11:49:44;;;;;;;4.03;1.42;;;23.80;98.30;;;;;;5042773;28;20204;-25
2023/07/06 11:52:26;;;;;;;5.07;1.92;;;23.90;98.30;;;;;;5044579;28;20590;-25
2023/07/06 11:55:18;;;;;;;6.28;1.80;;;24.00;97.70;;;;;;5044289;28;20208;-25
2023/07/06 11:58:18;;;;;;;5.00;1.63;;;24.00;98.00;;;;;;5043029;28;20224;-25
2023/07/06 12:00:52;;;;;;;3.85;1.60;;;24.00;97.80;;;;;;5044192;28;20204;-25
2023/07/06 12:03:26;;;;;;;4.63;2.00;;;24.00;98.10;;;;;;5042646;28;20211;-25
2023/07/06 12:06:02;;;;;;;4.38;1.70;;;24.10;98.10;;;;;;5044646;28;20223;-25
2023/07/06 12:08:37;;;;;;;4.05;1.52;;;24.10;98.10;;;;;;5042675;28;20705;-25
2023/07/06 12:11:14;;;;;;;2.30;1.58;;;24.20;98.10;;;;;;5044016;28;20732;-25
2023/07/06 12:13:44;;;;;;;3.20;1.58;;;24.30;98.10;;;;;;5044398;28;20693;-25
2023/07/06 12:16:20;;;;;;;5.40;2.25;;;24.30;98.30;;;;;;5042758;28;20258;-25
2023/07/06 12:19:12;;;;;;;3.88;1.67;;;24.40;98.30;;;;;;5043748;28;20224;-25
2023/07/06 12:21:52;;;;;;;3.00;1.58;;;24.50;98.50;;;;;;5044080;28;20214;-25
2023/07/06 12:24:26;;;;;;;3.78;1.95;;;24.60;98.30;;;;;;5042935;28;20199;-25
2023/07/06 12:27:02;;;;;;;2.50;1.60;;;24.70;98.30;;;;;;5044147;28;20208;-25
2023/07/06 12:29:32;;;;;;;2.22;1.63;;;24.80;98.20;;;;;;5042381;28;20203;-25
2023/07/06 12:32:17;;;;;;;4.35;2.30;;;24.80;98.30;;;;;;5043868;28;20208;-25
2023/07/06 12:34:45;;;;;;;3.38;1.88;;;24.80;98.10;;;;;;5042450;28;20211;-25
2023/07/06 12:37:17;;;;;;;3.50;1.77;;;24.90;98.20;;;;;;5042047;28;20204;-26
2023/07/06 12:39:51;;;;;;;4.13;1.70;;;24.90;97.80;;;;;;5042429;28;20299;-25
2023/07/06 12:42:21;;;;;;;3.45;1.77;;;24.90;98.00;;;;;;5044265;28;20204;-25
2023/07/06 12:44:50;;;;;;;5.22;1.77;;;25.00;97.90;;;;;;5042309;28;20701;-25
2023/07/06 12:47:37;;;;;;;4.80;2.03;;;25.00;97.70;;;;;;5042591;28;20213;-34
2023/07/06 12:50:16;;;;;;;4.30;1.80;;;25.00;97.80;;;;;;5042414;28;20606;-34
2023/07/06 12:52:45;;;;;;;7.50;1.90;;;25.00;97.50;;;;;;5043564;28;20196;-33
2023/07/06 12:55:15;;;;;;;3.95;1.95;;;25.00;97.30;;;;;;5042123;28;20291;-34
2023/07/06 12:57:46;;;;;;;7.32;2.08;;;25.00;97.30;;;;;;5042217;28;20256;-34
2023/07/06 13:00:24;;;;;;;3.38;1.52;;;25.00;97.20;;;;;;5043401;28;20200;-34
2023/07/06 13:02:57;;;;;;;3.88;1.65;;;25.00;97.30;;;;;;5042069;28;20207;-32
2023/07/06 13:05:31;;;;;;;2.88;1.55;;;25.00;96.90;;;;;;5043780;28;20192;-34
2023/07/06 13:08:08;;;;;;;3.75;1.83;;;25.00;97.10;;;;;;5043905;28;20200;-34
2023/07/06 13:10:41;;;;;;;4.85;1.83;;;25.00;97.30;;;;;;5045503;28;20475;-34
2023/07/06 13:13:19;;;;;;;2.63;1.70;;;25.00;96.70;;;;;;5046038;28;20561;-34
2023/07/06 13:15:47;;;;;;;4.85;1.90;;;25.00;96.70;;;;;;5047563;28;20268;-34
2023/07/06 13:18:19;;;;;;;3.13;1.60;;;25.00;96.90;;;;;;5029167;28;20224;-34